Time;durP1;ratioP1;P1;durP2;ratioP2;P2;SDS_P1;SDS_P2;PMS_P1;PMS_P2;Temp;Humidity;BMP_temperature;BMP_pressure;BME280_temperature;BME280_humidity;BME280_pressure;Samples;Min_cycle;Max_cycle;Signal;HPM_P1;HPM_P2
2022/06/09 00:00:27;;;;;;;4.57;3.30;;;17.40;99.90;;;;;;4999541;28;20173;-96
2022/06/09 00:02:56;;;;;;;5.37;3.23;;;17.30;99.90;;;;;;5010575;28;20168;-94
2022/06/09 00:05:23;;;;;;;6.87;3.57;;;17.30;99.90;;;;;;5002299;28;20185;-94
2022/06/09 00:07:53;;;;;;;5.03;3.27;;;17.30;99.90;;;;;;5020270;28;20234;-95
2022/06/09 00:10:29;;;;;;;6.40;3.33;;;17.30;99.90;;;;;;5004497;28;20209;-95
2022/06/09 00:12:55;;;;;;;7.57;3.83;;;17.30;99.90;;;;;;4999515;28;20284;-95
2022/06/09 00:15:21;;;;;;;9.67;3.70;;;17.20;99.90;;;;;;4998600;28;20209;-96
2022/06/09 00:17:46;;;;;;;8.90;3.93;;;17.20;99.90;;;;;;4987581;28;20188;-93
2022/06/09 00:20:14;;;;;;;5.17;3.70;;;17.20;99.90;;;;;;5016804;28;20193;-91
2022/06/09 00:22:40;;;;;;;5.87;3.60;;;17.20;99.90;;;;;;4993002;28;20178;-93
2022/06/09 00:25:06;;;;;;;5.93;3.87;;;17.20;99.90;;;;;;5000062;28;20696;-96
2022/06/09 00:27:32;;;;;;;8.63;4.13;;;17.20;99.90;;;;;;4980349;28;20654;-94
2022/06/09 00:29:57;;;;;;;9.67;4.00;;;17.30;99.90;;;;;;4979829;28;20261;-93
2022/06/09 00:32:23;;;;;;;9.80;4.00;;;17.30;99.90;;;;;;5000606;28;20201;-92
2022/06/09 00:34:49;;;;;;;9.73;3.90;;;17.30;99.90;;;;;;4998202;28;20725;-86
2022/06/09 00:37:15;;;;;;;9.73;4.10;;;17.30;99.90;;;;;;4996109;28;20180;-88
2022/06/09 00:39:40;;;;;;;6.40;3.80;;;17.30;99.90;;;;;;4979494;28;20178;-95
2022/06/09 00:42:09;;;;;;;10.47;4.90;;;17.30;99.90;;;;;;4997124;28;20670;-96
2022/06/09 00:44:37;;;;;;;7.23;4.00;;;17.30;99.90;;;;;;4979868;28;20269;-93
2022/06/09 00:47:14;;;;;;;5.73;3.83;;;17.40;99.90;;;;;;4980014;28;20612;-92
2022/06/09 00:50:12;;;;;;;12.30;4.10;;;17.40;99.90;;;;;;4997162;28;20173;-88
2022/06/09 00:52:43;;;;;;;4.03;3.50;;;17.40;99.90;;;;;;4991850;28;20181;-92
2022/06/09 00:55:15;;;;;;;9.00;4.40;;;17.50;99.90;;;;;;5004153;28;20177;-92
2022/06/09 00:57:55;;;;;;;8.60;3.90;;;17.40;99.90;;;;;;5004859;28;20162;-94
2022/06/09 01:00:25;;;;;;;6.70;4.10;;;17.50;99.90;;;;;;5006646;28;20169;-86
2022/06/09 01:02:55;;;;;;;10.80;4.03;;;17.50;99.90;;;;;;4989060;28;20188;-89
2022/06/09 01:05:23;;;;;;;7.53;3.70;;;17.50;99.90;;;;;;5003203;28;20170;-92
2022/06/09 01:07:52;;;;;;;7.63;3.00;;;17.50;99.90;;;;;;4999018;28;20276;-87
2022/06/09 01:10:18;;;;;;;5.63;3.43;;;17.50;99.90;;;;;;4997572;28;20169;-91
2022/06/09 01:12:47;;;;;;;10.47;3.70;;;17.50;99.90;;;;;;4995902;28;20417;-91
2022/06/09 01:15:17;;;;;;;7.40;3.87;;;17.50;99.90;;;;;;4997003;28;20172;-96
2022/06/09 01:18:07;;;;;;;3.73;3.33;;;17.50;99.90;;;;;;4997210;28;20170;-87
2022/06/09 01:20:44;;;;;;;10.00;3.80;;;17.40;99.90;;;;;;4994609;28;20178;-92
2022/06/09 01:23:31;;;;;;;7.67;3.77;;;17.40;99.90;;;;;;4977831;28;20174;-91
2022/06/09 01:26:24;;;;;;;7.17;4.00;;;17.40;99.90;;;;;;4996401;28;20212;-95
2022/06/09 01:29:11;;;;;;;6.33;3.83;;;17.40;99.90;;;;;;4995517;28;20185;-87
2022/06/09 01:31:50;;;;;;;4.83;3.33;;;17.40;99.90;;;;;;5002914;28;20173;-92
2022/06/09 01:34:47;;;;;;;5.53;3.90;;;17.30;99.90;;;;;;5003880;28;20193;-93
2022/06/09 01:37:22;;;;;;;6.80;3.97;;;17.20;99.90;;;;;;4998643;28;20185;-96
2022/06/09 01:39:55;;;;;;;7.07;3.97;;;17.20;99.90;;;;;;5007618;28;20173;-86
2022/06/09 01:42:37;;;;;;;5.63;3.70;;;17.10;99.90;;;;;;4999091;28;20166;-86
2022/06/09 01:45:14;;;;;;;6.20;3.63;;;17.10;99.90;;;;;;5004453;28;20162;-96
2022/06/09 01:47:45;;;;;;;4.93;3.53;;;17.10;99.90;;;;;;4997661;28;20177;-95
2022/06/09 01:50:18;;;;;;;4.60;3.23;;;17.20;99.90;;;;;;5018576;28;20171;-95
2022/06/09 01:52:45;;;;;;;3.93;3.30;;;17.20;99.90;;;;;;5016854;28;20186;-96
2022/06/09 01:55:16;;;;;;;6.47;3.53;;;17.20;99.90;;;;;;5012673;28;20161;-96
2022/06/09 01:57:43;;;;;;;4.53;3.73;;;17.10;99.90;;;;;;4992105;28;20166;-92
2022/06/09 02:00:14;;;;;;;3.30;3.10;;;17.10;99.90;;;;;;4998298;28;20230;-96
2022/06/09 02:02:59;;;;;;;4.20;3.80;;;17.00;99.90;;;;;;4981668;28;20167;-93
2022/06/09 02:05:29;;;;;;;3.20;3.07;;;17.00;99.90;;;;;;4998721;28;20183;-95
2022/06/09 02:07:58;;;;;;;4.70;3.10;;;17.00;99.90;;;;;;5002755;28;20178;-95
2022/06/09 02:10:30;;;;;;;4.87;3.20;;;17.00;99.90;;;;;;5009758;28;20616;-85
2022/06/09 02:13:01;;;;;;;4.17;3.30;;;17.00;99.90;;;;;;4981413;28;20684;-86
2022/06/09 02:15:37;;;;;;;4.80;2.90;;;16.90;99.90;;;;;;4995231;28;20204;-87
2022/06/09 02:18:09;;;;;;;3.40;3.10;;;17.00;99.90;;;;;;4993678;28;20696;-85
2022/06/09 02:20:42;;;;;;;3.33;3.13;;;17.00;99.90;;;;;;4995752;28;20250;-91
2022/06/09 02:23:22;;;;;;;5.97;3.80;;;17.10;99.90;;;;;;5004613;28;20611;-96
2022/06/09 02:25:48;;;;;;;4.80;3.67;;;17.10;99.90;;;;;;4989884;28;20168;-96
2022/06/09 02:28:13;;;;;;;8.23;4.03;;;17.10;99.90;;;;;;4984064;28;20177;-94
2022/06/09 02:30:40;;;;;;;5.63;3.30;;;17.00;99.90;;;;;;4987892;28;20197;-96
2022/06/09 02:33:08;;;;;;;4.10;3.73;;;17.00;99.90;;;;;;4987563;28;20233;-96
2022/06/09 02:35:34;;;;;;;3.77;3.47;;;17.00;99.90;;;;;;5001395;28;20532;-93
2022/06/09 02:38:00;;;;;;;4.97;3.93;;;16.90;99.90;;;;;;4992729;28;20216;-96
2022/06/09 02:40:27;;;;;;;4.23;3.43;;;16.90;99.90;;;;;;5001690;28;20638;-96
2022/06/09 02:42:57;;;;;;;4.20;3.80;;;16.90;99.90;;;;;;4989423;28;20204;-96
2022/06/09 02:45:23;;;;;;;5.67;3.77;;;16.90;99.90;;;;;;4992592;28;20187;-96
2022/06/09 02:47:50;;;;;;;10.50;3.83;;;17.00;99.90;;;;;;5004226;28;20185;-95
2022/06/09 02:50:17;;;;;;;4.97;3.53;;;17.00;99.90;;;;;;5008108;28;20189;-96
2022/06/09 02:52:43;;;;;;;4.70;3.27;;;17.10;99.90;;;;;;5005555;28;20171;-96
2022/06/09 02:55:12;;;;;;;4.50;3.77;;;17.00;99.90;;;;;;5004033;28;20241;-96
2022/06/09 02:57:38;;;;;;;8.03;3.87;;;16.90;99.90;;;;;;5005729;28;20174;-95
2022/06/09 03:00:08;;;;;;;5.10;3.73;;;16.80;99.90;;;;;;5002596;28;20188;-96
2022/06/09 03:02:34;;;;;;;6.87;3.63;;;16.90;99.90;;;;;;5002663;28;20192;-96
2022/06/09 03:05:06;;;;;;;5.50;3.73;;;16.80;99.90;;;;;;5014902;28;20164;-89
2022/06/09 03:07:32;;;;;;;6.20;3.47;;;16.80;99.90;;;;;;4990624;28;20531;-95
2022/06/09 03:09:57;;;;;;;5.23;4.03;;;16.80;99.90;;;;;;5004387;28;20258;-96
2022/06/09 03:12:23;;;;;;;5.03;3.40;;;16.80;99.90;;;;;;5000169;28;20218;-94
2022/06/09 03:14:49;;;;;;;3.83;3.33;;;16.80;99.90;;;;;;4986220;28;20217;-96
2022/06/09 03:17:15;;;;;;;3.83;3.53;;;16.70;99.90;;;;;;4983641;28;20191;-95
2022/06/09 03:19:41;;;;;;;4.13;3.73;;;16.70;99.90;;;;;;4988223;28;20239;-95
2022/06/09 03:22:07;;;;;;;7.33;3.73;;;16.70;99.90;;;;;;4984781;28;20196;-96
2022/06/09 03:24:33;;;;;;;4.57;3.70;;;16.80;99.90;;;;;;5002886;28;20166;-96
2022/06/09 03:26:59;;;;;;;3.37;3.17;;;16.80;99.90;;;;;;5004035;28;20178;-93
2022/06/09 03:29:25;;;;;;;3.80;3.40;;;16.70;99.90;;;;;;5012318;28;20644;-91
2022/06/09 03:31:51;;;;;;;3.97;3.50;;;16.80;99.90;;;;;;5021310;28;20175;-89
2022/06/09 03:34:18;;;;;;;3.50;3.20;;;16.80;99.90;;;;;;5020941;28;20242;-88
2022/06/09 03:36:45;;;;;;;3.50;3.13;;;16.90;99.90;;;;;;5009332;28;20162;-94
2022/06/09 03:39:13;;;;;;;2.67;2.47;;;16.90;99.90;;;;;;5001120;28;20182;-94
2022/06/09 03:41:40;;;;;;;4.30;3.10;;;17.00;99.90;;;;;;5001721;28;20166;-90
2022/06/09 03:44:06;;;;;;;4.83;2.97;;;17.10;99.90;;;;;;5000548;28;20181;-96
2022/06/09 03:46:32;;;;;;;3.37;2.87;;;17.10;99.90;;;;;;5017713;28;20227;-92
2022/06/09 03:48:58;;;;;;;3.20;3.00;;;17.10;99.90;;;;;;5001017;28;20190;-94
2022/06/09 03:51:25;;;;;;;3.10;2.80;;;17.20;99.90;;;;;;5018747;28;20189;-94
2022/06/09 03:53:51;;;;;;;3.37;2.90;;;17.20;99.90;;;;;;5017705;28;20203;-95
2022/06/09 03:56:19;;;;;;;3.63;2.70;;;17.20;99.90;;;;;;5002802;28;20177;-94
2022/06/09 03:58:45;;;;;;;3.10;2.80;;;17.30;99.90;;;;;;5012497;28;20219;-89
2022/06/09 04:01:13;;;;;;;3.83;2.70;;;17.40;99.90;;;;;;5017268;28;20641;-87
2022/06/09 04:03:41;;;;;;;4.00;2.57;;;17.40;99.90;;;;;;5025607;28;20239;-91
2022/06/09 04:06:22;;;;;;;2.97;2.53;;;17.50;99.90;;;;;;5016924;28;20200;-93
2022/06/09 04:08:50;;;;;;;3.07;2.77;;;17.50;99.90;;;;;;4998762;28;20215;-95
2022/06/09 04:11:17;;;;;;;3.67;3.03;;;17.60;99.90;;;;;;4999609;28;20208;-94
2022/06/09 04:13:43;;;;;;;2.50;2.30;;;17.50;99.90;;;;;;5016848;28;20214;-95
2022/06/09 04:16:29;;;;;;;2.80;2.40;;;17.60;99.90;;;;;;5017053;28;21001;-93
2022/06/09 04:18:59;;;;;;;3.67;2.30;;;17.60;99.90;;;;;;5016437;28;20228;-95
2022/06/09 04:21:26;;;;;;;3.03;2.37;;;17.60;99.90;;;;;;4999228;28;20185;-93
2022/06/09 04:23:51;;;;;;;2.50;2.40;;;17.60;99.90;;;;;;5017311;28;20180;-94
2022/06/09 04:26:20;;;;;;;2.20;2.10;;;17.70;99.90;;;;;;5016753;28;20223;-95
2022/06/09 04:28:47;;;;;;;2.33;2.13;;;17.70;99.90;;;;;;5016958;28;20180;-92
2022/06/09 04:31:14;;;;;;;2.23;2.13;;;17.70;99.90;;;;;;4998607;28;20177;-95
2022/06/09 04:33:40;;;;;;;2.20;2.10;;;17.70;99.90;;;;;;5017270;28;20216;-94
2022/06/09 04:36:08;;;;;;;2.50;2.40;;;17.70;99.90;;;;;;4999376;28;20184;-95
2022/06/09 04:38:36;;;;;;;2.67;1.93;;;17.70;99.90;;;;;;5016766;28;20180;-95
2022/06/09 04:41:02;;;;;;;3.70;2.03;;;17.70;99.90;;;;;;5016027;28;20208;-93
2022/06/09 04:43:28;;;;;;;2.37;2.17;;;17.70;99.90;;;;;;5016729;28;20230;-94
2022/06/09 04:45:54;;;;;;;1.60;1.60;;;17.70;99.90;;;;;;5017890;28;20173;-95
2022/06/09 04:48:20;;;;;;;2.37;1.97;;;17.80;99.90;;;;;;4999858;28;20189;-95
2022/06/09 04:50:45;;;;;;;2.10;2.00;;;17.80;99.90;;;;;;5017510;28;20174;-93
2022/06/09 04:53:11;;;;;;;3.20;2.30;;;17.80;99.90;;;;;;5017098;28;20718;-94
2022/06/09 04:55:39;;;;;;;2.20;1.70;;;17.80;99.90;;;;;;5016630;28;20641;-95
2022/06/09 04:58:05;;;;;;;1.90;1.80;;;17.80;99.90;;;;;;5016878;28;20177;-96
2022/06/09 05:00:31;;;;;;;3.50;1.70;;;17.80;99.90;;;;;;5017678;28;20235;-96
2022/06/09 05:02:59;;;;;;;2.07;1.90;;;17.80;99.90;;;;;;5018734;28;20574;-93
2022/06/09 05:05:29;;;;;;;1.67;1.63;;;17.90;99.90;;;;;;5019236;28;20185;-95
2022/06/09 05:07:55;;;;;;;2.07;1.80;;;17.90;99.90;;;;;;5020439;28;20200;-92
2022/06/09 05:10:21;;;;;;;1.77;1.67;;;17.90;99.90;;;;;;5028627;28;20161;-93
2022/06/09 05:12:47;;;;;;;3.33;2.03;;;18.00;99.90;;;;;;5031220;28;20173;-94
2022/06/09 05:15:15;;;;;;;2.00;1.60;;;17.90;99.90;;;;;;5018818;28;20184;-86
2022/06/09 05:17:41;;;;;;;2.10;1.60;;;17.90;99.90;;;;;;5032245;28;20179;-88
2022/06/09 05:20:08;;;;;;;3.23;1.67;;;17.80;99.90;;;;;;5007511;28;20257;-94
2022/06/09 05:22:34;;;;;;;1.63;1.57;;;17.80;99.90;;;;;;5017811;28;20169;-94
2022/06/09 05:25:00;;;;;;;1.63;1.53;;;17.70;99.90;;;;;;5016724;28;20177;-93
2022/06/09 05:27:26;;;;;;;1.40;1.40;;;17.60;99.90;;;;;;5018352;28;20253;-96
2022/06/09 05:29:52;;;;;;;2.20;1.53;;;17.50;99.90;;;;;;4998814;28;20606;-93
2022/06/09 05:32:19;;;;;;;1.33;1.23;;;17.50;99.90;;;;;;5018203;28;20207;-94
2022/06/09 05:34:45;;;;;;;1.70;1.63;;;17.50;99.90;;;;;;5018570;28;20211;-86
2022/06/09 05:37:11;;;;;;;2.30;1.37;;;17.60;99.90;;;;;;5015964;28;20656;-85
2022/06/09 05:45:05;;;;;;;1.80;1.70;;;17.70;99.90;;;;;;5015603;28;20192;-89
2022/06/09 05:47:31;;;;;;;1.33;1.23;;;17.70;99.90;;;;;;5020367;28;20179;-87
2022/06/09 05:49:57;;;;;;;1.30;1.23;;;17.70;99.90;;;;;;5031450;28;20180;-91
2022/06/09 05:52:25;;;;;;;2.37;1.37;;;17.80;99.90;;;;;;5013612;28;20197;-95
2022/06/09 05:54:52;;;;;;;1.43;1.40;;;17.80;99.90;;;;;;5026051;28;20211;-95
2022/06/09 05:57:20;;;;;;;1.20;1.20;;;17.80;99.90;;;;;;5026374;28;20175;-95
2022/06/09 05:59:46;;;;;;;1.33;1.33;;;17.80;99.90;;;;;;5033707;28;20253;-88
2022/06/09 06:02:13;;;;;;;1.53;1.53;;;17.90;99.90;;;;;;5033450;28;20172;-90
2022/06/09 06:04:39;;;;;;;3.63;1.40;;;17.90;99.90;;;;;;5025309;28;20235;-91
2022/06/09 06:07:05;;;;;;;1.70;1.60;;;17.90;99.90;;;;;;5019313;28;20184;-94
2022/06/09 06:09:30;;;;;;;1.80;1.30;;;17.90;99.90;;;;;;4998916;28;20169;-91
2022/06/09 06:11:56;;;;;;;1.90;1.80;;;17.90;99.90;;;;;;4999502;28;20188;-93
2022/06/09 06:14:23;;;;;;;1.20;1.20;;;17.90;99.90;;;;;;5015498;28;20216;-91
2022/06/09 06:16:49;;;;;;;1.30;1.30;;;17.90;99.90;;;;;;4998359;28;20181;-95
2022/06/09 06:19:17;;;;;;;2.40;1.37;;;17.90;99.90;;;;;;5017904;28;20232;-92
2022/06/09 06:21:46;;;;;;;3.23;1.40;;;17.80;99.90;;;;;;5017224;28;20176;-90
2022/06/09 06:24:14;;;;;;;1.80;1.20;;;17.80;99.90;;;;;;5016643;28;20177;-96
2022/06/09 06:26:40;;;;;;;1.10;1.10;;;17.80;99.90;;;;;;5015286;28;20510;-93
2022/06/09 06:29:08;;;;;;;1.53;1.20;;;17.90;99.90;;;;;;5015585;28;20271;-93
2022/06/09 06:31:34;;;;;;;1.30;1.30;;;17.90;99.90;;;;;;5016574;28;20169;-94
2022/06/09 06:34:00;;;;;;;1.20;1.20;;;17.90;99.90;;;;;;5015199;28;20203;-95
2022/06/09 06:36:27;;;;;;;1.40;1.30;;;17.90;99.90;;;;;;5015576;28;20180;-94
2022/06/09 06:38:53;;;;;;;2.77;1.47;;;17.90;99.90;;;;;;4989412;28;20184;-93
2022/06/09 06:41:19;;;;;;;1.53;1.30;;;17.90;99.90;;;;;;5013709;28;20185;-89
2022/06/09 06:43:47;;;;;;;2.20;1.23;;;17.90;99.90;;;;;;5002362;28;20232;-91
2022/06/09 06:46:15;;;;;;;1.20;1.10;;;17.80;99.90;;;;;;5007566;28;20180;-92
2022/06/09 06:48:40;;;;;;;1.10;1.10;;;17.90;99.90;;;;;;4984235;28;20267;-92
2022/06/09 06:51:07;;;;;;;2.77;0.93;;;17.90;99.90;;;;;;4985044;28;20178;-90
2022/06/09 06:53:35;;;;;;;1.30;1.20;;;17.90;99.90;;;;;;5001006;28;20205;-96
2022/06/09 06:56:02;;;;;;;1.03;0.90;;;17.90;99.90;;;;;;5003866;28;20189;-90
2022/06/09 06:58:28;;;;;;;1.13;1.13;;;18.00;99.90;;;;;;5020056;28;20170;-96
2022/06/09 07:00:54;;;;;;;1.53;1.20;;;18.00;99.90;;;;;;4994903;28;20185;-87
2022/06/09 07:03:25;;;;;;;2.37;1.10;;;18.00;99.90;;;;;;5014036;28;20191;-95
2022/06/09 07:05:51;;;;;;;0.93;0.93;;;18.00;99.90;;;;;;4987232;28;20526;-93
2022/06/09 07:08:17;;;;;;;1.03;1.03;;;18.00;99.90;;;;;;5003515;28;20192;-92
2022/06/09 07:10:46;;;;;;;1.60;1.30;;;18.00;99.90;;;;;;4991830;28;20183;-95
2022/06/09 07:13:12;;;;;;;1.80;1.20;;;18.00;99.90;;;;;;4985185;28;20212;-92
2022/06/09 07:15:38;;;;;;;1.20;1.10;;;18.10;99.90;;;;;;4984927;28;20185;-93
2022/06/09 07:18:09;;;;;;;1.93;1.60;;;18.10;99.90;;;;;;5000622;28;20232;-85
2022/06/09 07:20:36;;;;;;;2.20;1.80;;;18.10;99.90;;;;;;4999294;28;20166;-89
2022/06/09 07:23:02;;;;;;;1.17;1.17;;;18.20;99.90;;;;;;4981733;28;20185;-88
2022/06/09 07:25:28;;;;;;;2.77;1.23;;;18.20;99.90;;;;;;4997573;28;20184;-84
2022/06/09 07:27:55;;;;;;;1.20;1.20;;;18.20;99.90;;;;;;4997279;28;20174;-86
2022/06/09 07:30:25;;;;;;;0.90;0.90;;;18.10;99.90;;;;;;5003381;28;20180;-96
2022/06/09 07:32:51;;;;;;;1.20;1.07;;;18.00;99.90;;;;;;4977531;28;20186;-94
2022/06/09 07:35:20;;;;;;;0.90;0.90;;;18.00;99.90;;;;;;5006905;28;20178;-92
2022/06/09 07:37:46;;;;;;;2.53;1.30;;;18.10;99.90;;;;;;4985894;28;20188;-87
2022/06/09 07:40:13;;;;;;;1.20;1.10;;;18.10;99.90;;;;;;5017550;28;20181;-96
2022/06/09 07:42:40;;;;;;;1.77;1.00;;;18.20;99.90;;;;;;4992151;28;20178;-96
2022/06/09 07:45:08;;;;;;;1.60;1.00;;;18.30;99.90;;;;;;5007550;28;20161;-96
2022/06/09 07:47:34;;;;;;;1.10;1.00;;;18.20;99.90;;;;;;5012682;28;20181;-90
2022/06/09 07:50:00;;;;;;;1.87;1.30;;;18.30;99.90;;;;;;5012258;28;20182;-95
2022/06/09 07:52:26;;;;;;;1.47;1.10;;;18.30;99.90;;;;;;5005583;28;20184;-95
2022/06/09 07:54:52;;;;;;;1.10;1.10;;;18.30;99.90;;;;;;4986717;28;20245;-96
2022/06/09 07:57:17;;;;;;;1.10;1.00;;;18.40;99.90;;;;;;4992426;28;20197;-96
2022/06/09 07:59:43;;;;;;;1.03;1.03;;;18.30;99.90;;;;;;5010125;28;20178;-92
2022/06/09 08:02:12;;;;;;;1.23;1.13;;;18.30;99.90;;;;;;4994065;28;20170;-96
2022/06/09 08:04:39;;;;;;;1.00;1.00;;;18.30;99.90;;;;;;5019163;28;20161;-91
2022/06/09 08:07:05;;;;;;;1.20;1.20;;;18.30;99.90;;;;;;5017435;28;20704;-90
2022/06/09 08:09:31;;;;;;;2.07;1.23;;;18.40;99.90;;;;;;4993544;28;20180;-95
2022/06/09 08:11:58;;;;;;;1.33;1.03;;;18.30;99.90;;;;;;4988638;28;20537;-95
2022/06/09 08:14:24;;;;;;;0.80;0.80;;;18.30;99.90;;;;;;5003460;28;20210;-95
2022/06/09 08:16:51;;;;;;;0.80;0.80;;;18.30;99.90;;;;;;5004381;28;20170;-94
2022/06/09 08:19:18;;;;;;;2.63;0.90;;;18.40;99.90;;;;;;5004141;28;20212;-87
2022/06/09 08:21:43;;;;;;;0.70;0.70;;;18.40;99.90;;;;;;5008688;28;20554;-92
2022/06/09 08:24:11;;;;;;;0.93;0.93;;;18.50;99.90;;;;;;5006114;28;20189;-95
2022/06/09 08:26:38;;;;;;;1.50;1.00;;;18.60;99.90;;;;;;5001297;28;20177;-92
2022/06/09 08:29:04;;;;;;;0.90;0.90;;;18.70;99.90;;;;;;5000276;28;20177;-86
2022/06/09 08:31:36;;;;;;;1.30;0.90;;;18.60;99.90;;;;;;4983328;28;20217;-88
2022/06/09 08:34:02;;;;;;;2.10;1.10;;;18.60;99.90;;;;;;4987262;28;20205;-94
2022/06/09 08:36:28;;;;;;;1.83;0.93;;;18.70;99.90;;;;;;4992957;28;20268;-94
2022/06/09 08:38:55;;;;;;;0.70;0.70;;;18.70;99.90;;;;;;5025970;28;20176;-86
2022/06/09 08:41:46;;;;;;;0.80;0.80;;;18.70;99.90;;;;;;5031575;28;20708;-90
2022/06/09 08:44:17;;;;;;;0.97;0.70;;;18.70;99.90;;;;;;5024699;28;20169;-87
2022/06/09 08:47:24;;;;;;;2.43;0.90;;;18.60;99.90;;;;;;5029698;28;20220;-89
2022/06/09 08:50:17;;;;;;;0.90;0.90;;;18.70;99.90;;;;;;4941858;29;20293;-93
2022/06/09 08:52:59;;;;;;;0.70;0.70;;;18.70;99.90;;;;;;4926789;29;20192;-87
2022/06/09 08:55:40;;;;;;;0.67;0.67;;;18.80;99.90;;;;;;5000877;28;20677;-89
2022/06/09 08:58:17;;;;;;;2.17;1.07;;;18.60;99.90;;;;;;5019359;28;20173;-86
2022/06/09 09:00:58;;;;;;;0.70;0.70;;;18.60;99.90;;;;;;5001826;28;20177;-84
2022/06/09 09:03:36;;;;;;;1.67;0.90;;;18.70;99.90;;;;;;5001442;28;20181;-87
2022/06/09 09:06:17;;;;;;;0.80;0.80;;;18.70;99.90;;;;;;5017449;28;20517;-85
2022/06/09 09:08:44;;;;;;;0.70;0.70;;;18.80;99.90;;;;;;5016551;28;20168;-84
2022/06/09 09:11:27;;;;;;;0.70;0.70;;;18.80;99.90;;;;;;5015934;28;20165;-88
2022/06/09 09:14:01;;;;;;;2.23;0.80;;;18.80;99.90;;;;;;5020799;28;20677;-85
2022/06/09 09:17:02;;;;;;;0.80;0.80;;;18.80;99.90;;;;;;5021547;28;20169;-91
2022/06/09 09:19:28;;;;;;;1.03;0.80;;;18.80;99.90;;;;;;5024190;28;20232;-87
2022/06/09 09:22:14;;;;;;;1.43;0.70;;;18.80;99.90;;;;;;5025485;28;20169;-90
2022/06/09 09:24:51;;;;;;;1.40;0.70;;;18.90;99.90;;;;;;5050494;23;20235;-88
2022/06/09 09:27:24;;;;;;;0.70;0.70;;;19.00;99.90;;;;;;5074276;28;20167;-82
2022/06/09 09:30:08;;;;;;;0.90;0.90;;;19.10;99.90;;;;;;5069424;28;20171;-92
2022/06/09 09:32:42;;;;;;;1.10;1.10;;;19.10;99.90;;;;;;5067051;28;20218;-96
2022/06/09 09:35:17;;;;;;;0.60;0.60;;;19.30;99.90;;;;;;5061390;28;20268;-91
2022/06/09 09:37:52;;;;;;;0.50;0.50;;;19.40;99.90;;;;;;5062587;28;20575;-95
2022/06/09 09:40:29;;;;;;;0.70;0.70;;;19.40;99.90;;;;;;5059644;28;20242;-94
2022/06/09 09:42:58;;;;;;;0.60;0.60;;;19.60;99.90;;;;;;5062212;28;20156;-93
2022/06/09 09:45:42;;;;;;;1.60;0.50;;;19.60;99.90;;;;;;5062599;28;20172;-88
2022/06/09 09:48:17;;;;;;;0.70;0.70;;;19.70;99.60;;;;;;5064626;28;20201;-91
2022/06/09 09:50:51;;;;;;;0.53;0.53;;;19.80;99.60;;;;;;5075356;23;20226;-93
2022/06/09 09:53:34;;;;;;;0.60;0.60;;;19.70;99.80;;;;;;5064187;28;20625;-96
2022/06/09 09:56:29;;;;;;;0.90;0.90;;;19.80;99.70;;;;;;5064624;28;20243;-90
2022/06/09 09:59:23;;;;;;;1.80;0.70;;;19.90;99.50;;;;;;5069721;28;20186;-96
2022/06/09 10:10:28;;;;;;;0.70;0.70;;;20.00;99.20;;;;;;5028764;28;20223;-92
2022/06/09 10:12:57;;;;;;;0.60;0.60;;;19.90;99.20;;;;;;5025035;28;20165;-91
2022/06/09 10:15:26;;;;;;;0.60;0.60;;;19.80;99.20;;;;;;5021324;28;20201;-95
2022/06/09 10:18:03;;;;;;;1.43;0.57;;;19.80;99.30;;;;;;5004073;28;20169;-95
2022/06/09 10:20:37;;;;;;;1.17;0.60;;;19.70;99.30;;;;;;5030560;28;20169;-90
2022/06/09 10:23:16;;;;;;;4.73;0.60;;;19.70;99.10;;;;;;4997848;28;20375;-85
2022/06/09 10:25:50;;;;;;;0.53;0.53;;;19.70;99.10;;;;;;4990215;28;20173;-92
2022/06/09 10:28:51;;;;;;;0.63;0.60;;;19.70;99.20;;;;;;5006346;28;20217;-86
2022/06/09 10:31:41;;;;;;;0.50;0.50;;;19.70;99.10;;;;;;5004354;28;20173;-87
2022/06/09 10:34:51;;;;;;;0.57;0.57;;;19.60;99.40;;;;;;4983069;28;20201;-94
2022/06/09 10:37:43;;;;;;;2.67;0.70;;;19.50;99.10;;;;;;5001831;28;20199;-90
2022/06/09 10:40:15;;;;;;;0.53;0.53;;;19.50;99.40;;;;;;5003408;28;20592;-91
2022/06/09 10:42:54;;;;;;;1.00;1.00;;;19.40;99.20;;;;;;4983866;28;20185;-89
2022/06/09 10:45:47;;;;;;;0.70;0.70;;;19.50;99.50;;;;;;4982901;28;20544;-88
2022/06/09 10:58:01;;;;;;;1.20;0.73;;;19.60;99.40;;;;;;5024258;28;20176;-89
2022/06/09 11:00:30;;;;;;;0.70;0.70;;;19.90;99.30;;;;;;5028130;28;20208;-88
2022/06/09 11:03:00;;;;;;;0.43;0.43;;;20.10;99.00;;;;;;5024501;28;20570;-96
2022/06/09 11:05:46;;;;;;;0.67;0.67;;;20.10;98.60;;;;;;5025568;28;20164;-94
2022/06/09 11:08:38;;;;;;;0.60;0.60;;;20.20;98.60;;;;;;5022116;28;20223;-89
2022/06/09 11:11:16;;;;;;;0.67;0.63;;;20.00;98.80;;;;;;5019832;28;20197;-91
2022/06/09 11:14:15;;;;;;;0.53;0.50;;;19.80;99.00;;;;;;5019010;28;20207;-87
2022/06/09 11:16:46;;;;;;;0.83;0.63;;;19.70;99.00;;;;;;5029361;28;20193;-89
2022/06/09 11:19:30;;;;;;;2.40;0.87;;;19.60;99.30;;;;;;5024599;28;20173;-87
2022/06/09 11:22:18;;;;;;;2.03;0.93;;;19.50;99.20;;;;;;5017300;28;20162;-90
2022/06/09 11:24:48;;;;;;;0.50;0.50;;;19.50;99.40;;;;;;5018554;28;20164;-86
2022/06/09 11:27:31;;;;;;;0.80;0.80;;;19.50;99.00;;;;;;5000720;28;20189;-86
2022/06/09 11:30:23;;;;;;;0.70;0.70;;;19.50;99.00;;;;;;5018554;28;20213;-84
2022/06/09 11:33:10;;;;;;;1.27;0.70;;;19.40;99.20;;;;;;5021227;28;20177;-85
2022/06/09 11:36:10;;;;;;;1.63;0.80;;;19.30;99.30;;;;;;5000634;28;20211;-86
2022/06/09 11:38:49;;;;;;;0.60;0.60;;;19.20;99.10;;;;;;4997633;28;20173;-85
2022/06/09 11:41:59;;;;;;;2.97;0.57;;;19.20;99.10;;;;;;5018509;28;20569;-93
2022/06/09 11:44:39;;;;;;;0.40;0.40;;;19.20;99.40;;;;;;4988957;28;20336;-96
2022/06/09 11:47:16;;;;;;;1.33;0.70;;;19.10;99.40;;;;;;4987820;28;20199;-95
2022/06/09 11:49:50;;;;;;;0.80;0.50;;;19.20;99.30;;;;;;4981487;28;20209;-93
2022/06/09 11:52:24;;;;;;;0.40;0.40;;;19.10;99.30;;;;;;4958880;28;20206;-86
2022/06/09 11:54:55;;;;;;;0.63;0.63;;;19.20;99.30;;;;;;4967372;28;20213;-96
2022/06/09 11:57:27;;;;;;;1.97;0.90;;;19.10;99.10;;;;;;4986148;28;20171;-94
2022/06/09 12:00:25;;;;;;;0.50;0.50;;;19.20;99.00;;;;;;4980555;28;20183;-93
2022/06/09 12:03:17;;;;;;;0.60;0.60;;;19.10;98.70;;;;;;4980392;28;20191;-96
2022/06/09 12:06:10;;;;;;;0.60;0.60;;;19.10;98.80;;;;;;4999115;28;20187;-86
2022/06/09 12:08:52;;;;;;;0.70;0.70;;;19.10;98.80;;;;;;4988575;28;20271;-90
2022/06/09 12:11:23;;;;;;;0.70;0.70;;;19.20;98.90;;;;;;4992690;28;20226;-86
2022/06/09 12:14:37;;;;;;;0.80;0.80;;;19.30;98.70;;;;;;4971751;28;20305;-84
2022/06/09 12:17:34;;;;;;;0.70;0.70;;;19.30;98.70;;;;;;5006831;28;20275;-87
2022/06/09 12:20:26;;;;;;;0.53;0.53;;;19.30;98.50;;;;;;4939710;29;20230;-86
2022/06/09 12:23:24;;;;;;;1.20;0.60;;;19.30;98.50;;;;;;4921902;29;20589;-86
2022/06/09 12:26:11;;;;;;;0.60;0.60;;;19.30;98.40;;;;;;4938024;29;20279;-84
2022/06/09 12:28:57;;;;;;;0.30;0.30;;;19.30;98.40;;;;;;4922372;29;20199;-87
2022/06/09 12:31:27;;;;;;;0.93;0.50;;;19.40;98.40;;;;;;4936991;29;20180;-85
2022/06/09 12:34:11;;;;;;;0.70;0.70;;;19.60;98.50;;;;;;4936053;29;20700;-84
2022/06/09 12:36:51;;;;;;;0.50;0.50;;;19.60;98.50;;;;;;4938147;29;20192;-96
2022/06/09 12:39:37;;;;;;;0.60;0.60;;;19.80;98.20;;;;;;4942831;29;20250;-96
2022/06/09 12:42:05;;;;;;;0.67;0.67;;;19.70;98.00;;;;;;4942252;29;20656;-93
2022/06/09 12:44:38;;;;;;;0.60;0.60;;;19.80;98.50;;;;;;4928662;29;20214;-92
2022/06/09 12:47:17;;;;;;;0.70;0.70;;;19.80;98.70;;;;;;4945718;29;20640;-94
2022/06/09 12:49:45;;;;;;;0.80;0.80;;;19.80;98.90;;;;;;4942651;29;20270;-93
2022/06/09 12:52:42;;;;;;;1.03;1.03;;;19.80;98.80;;;;;;4939142;29;20180;-96
2022/06/09 12:55:24;;;;;;;1.03;1.00;;;19.80;99.50;;;;;;4940379;29;20231;-95
2022/06/09 12:57:57;;;;;;;1.13;1.10;;;19.90;99.80;;;;;;5022563;28;20154;-89
2022/06/09 13:00:28;;;;;;;0.77;0.77;;;19.90;99.70;;;;;;5005563;28;20161;-95
2022/06/09 13:02:54;;;;;;;1.23;1.17;;;20.00;99.10;;;;;;5023152;28;20192;-96
2022/06/09 13:05:32;;;;;;;0.83;0.83;;;20.00;99.70;;;;;;5017658;28;20200;-90
2022/06/09 13:08:14;;;;;;;1.57;1.33;;;20.00;99.80;;;;;;5019299;28;20240;-84
2022/06/09 13:10:44;;;;;;;0.70;0.70;;;20.10;99.70;;;;;;5020168;28;20157;-96
2022/06/09 13:13:25;;;;;;;0.70;0.70;;;20.20;99.90;;;;;;5017425;28;20176;-94
2022/06/09 13:16:02;;;;;;;1.27;0.80;;;20.20;99.40;;;;;;5020022;28;20570;-95
2022/06/09 13:18:43;;;;;;;2.13;1.93;;;20.30;99.90;;;;;;5002930;28;20181;-91
2022/06/09 13:21:20;;;;;;;1.47;0.90;;;20.40;99.90;;;;;;5002527;28;20181;-94
2022/06/09 13:23:53;;;;;;;1.07;0.73;;;20.40;99.90;;;;;;5017335;28;20161;-93
2022/06/09 13:26:27;;;;;;;0.80;0.70;;;20.50;99.90;;;;;;5020596;28;20181;-96
2022/06/09 13:28:58;;;;;;;0.70;0.70;;;20.60;99.90;;;;;;5018333;28;20502;-92
2022/06/09 13:31:45;;;;;;;2.63;0.97;;;20.80;99.90;;;;;;5017686;28;20533;-95
2022/06/09 13:34:14;;;;;;;2.20;0.73;;;20.90;99.30;;;;;;5005190;28;20661;-95
2022/06/09 13:37:01;;;;;;;0.53;0.53;;;21.10;99.90;;;;;;5023667;28;20177;-95